createdAt,value
2018-05-15T00:02:18.951Z,59.60
2018-05-15T00:04:47.204Z,59.60
2018-05-15T00:07:15.482Z,60.20
2018-05-15T00:09:43.731Z,60.90
2018-05-15T00:12:12.003Z,62.10
2018-05-15T00:14:40.266Z,62.70
2018-05-15T00:17:08.540Z,64.10
2018-05-15T00:19:36.793Z,64.00
2018-05-15T00:22:05.065Z,64.50
2018-05-15T00:24:33.332Z,64.20
2018-05-15T00:27:01.587Z,63.60
2018-05-15T00:29:29.822Z,63.20
2018-05-15T00:31:58.074Z,62.90
2018-05-15T00:34:26.333Z,63.60
2018-05-15T00:36:54.590Z,63.50
2018-05-15T00:39:22.872Z,64.10
2018-05-15T00:41:51.155Z,65.20
2018-05-15T00:44:19.533Z,65.60
2018-05-15T00:46:47.736Z,66.50
2018-05-15T00:49:16.711Z,67.20
2018-05-15T00:51:44.986Z,67.40
2018-05-15T00:54:13.252Z,67.70
2018-05-15T00:56:41.500Z,67.50
2018-05-15T00:59:10.531Z,68.10
2018-05-15T01:01:38.784Z,68.10
2018-05-15T01:04:07.109Z,69.00
2018-05-15T01:06:35.360Z,69.90
2018-05-15T01:09:03.604Z,71.10
2018-05-15T01:11:32.649Z,72.50
2018-05-15T01:14:00.920Z,72.50
2018-05-15T01:16:29.166Z,72.80
2018-05-15T01:18:57.417Z,73.30
2018-05-15T01:21:26.445Z,75.70
2018-05-15T01:23:54.716Z,75.50
2018-05-15T01:26:22.974Z,76.60
2018-05-15T01:28:52.001Z,79.00
2018-05-15T01:31:20.244Z,79.00
2018-05-15T01:33:49.286Z,80.60
2018-05-15T01:36:17.545Z,80.50
2018-05-15T01:38:45.870Z,83.00
2018-05-15T01:41:15.639Z,83.90
2018-05-15T01:43:43.902Z,84.00
2018-05-15T01:46:12.148Z,85.00
2018-05-15T01:48:41.183Z,85.50
2018-05-15T01:51:09.432Z,85.50
2018-05-15T01:53:37.686Z,87.00
2018-05-15T01:56:06.716Z,91.10
2018-05-15T01:58:34.998Z,91.10
2018-05-15T02:01:03.259Z,91.50
2018-05-15T02:03:31.520Z,92.10
2018-05-15T02:05:59.803Z,92.90
2018-05-15T02:08:28.061Z,93.40
2018-05-15T02:10:57.105Z,94.60
2018-05-15T02:13:25.359Z,94.60
2018-05-15T02:15:53.632Z,95.50
2018-05-15T02:18:21.890Z,95.00
2018-05-15T02:20:50.905Z,95.90
2018-05-15T02:23:19.172Z,95.90
2018-05-15T02:25:47.449Z,95.60
2018-05-15T02:28:15.728Z,94.70
2018-05-15T02:30:43.972Z,94.70
2018-05-15T02:33:12.209Z,94.60
2018-05-15T02:35:40.459Z,94.30
2018-05-15T02:38:08.715Z,94.60
2018-05-15T02:40:37.734Z,94.80
2018-05-15T02:43:05.999Z,94.80
2018-05-15T02:45:34.250Z,95.20
2018-05-15T02:48:03.267Z,95.90
2018-05-15T02:50:31.511Z,95.90
2018-05-15T02:52:59.786Z,95.20
2018-05-15T02:55:28.040Z,95.70
2018-05-15T02:57:56.354Z,95.70
2018-05-15T03:00:24.593Z,95.50
2018-05-15T03:02:52.864Z,96.00
2018-05-15T03:05:21.162Z,95.50
2018-05-15T03:07:49.435Z,95.10
2018-05-15T03:10:17.699Z,96.00
2018-05-15T03:12:45.985Z,96.40
2018-05-15T03:15:15.008Z,96.30
2018-05-15T03:17:44.042Z,96.60
2018-05-15T03:20:13.528Z,96.70
2018-05-15T03:22:41.784Z,96.60
2018-05-15T03:25:10.052Z,97.50
2018-05-15T03:27:39.068Z,96.80
2018-05-15T03:30:07.318Z,96.80
2018-05-15T03:32:36.362Z,97.20
2018-05-15T03:35:04.629Z,97.10
2018-05-15T03:37:32.864Z,97.40
2018-05-15T03:40:01.878Z,97.50
2018-05-15T03:42:30.145Z,97.50
2018-05-15T03:44:58.421Z,97.00
2018-05-15T03:47:26.689Z,97.50
2018-05-15T03:49:55.792Z,98.30
2018-05-15T03:52:24.072Z,98.20
2018-05-15T03:54:53.090Z,98.20
2018-05-15T03:57:21.334Z,98.20
2018-05-15T03:59:49.602Z,98.60
2018-05-15T04:02:30.750Z,98.40
2018-05-15T04:05:10.970Z,98.40
2018-05-15T04:10:45.237Z,97.00
2018-05-15T04:13:13.679Z,96.60
2018-05-15T04:15:41.955Z,96.30
2018-05-15T04:18:10.211Z,96.20
2018-05-15T04:20:39.238Z,96.00
2018-05-15T04:23:07.490Z,96.00
2018-05-15T04:25:35.742Z,95.70
2018-05-15T04:28:04.876Z,95.90
2018-05-15T04:30:33.091Z,95.90
2018-05-15T04:33:01.336Z,95.70
2018-05-15T04:35:29.644Z,95.20
2018-05-15T04:37:57.956Z,95.20
2018-05-15T04:40:26.976Z,97.30
2018-05-15T04:42:55.381Z,97.20
2018-05-15T04:45:23.660Z,98.10
2018-05-15T04:47:51.906Z,98.40
2018-05-15T04:50:20.944Z,98.50
2018-05-15T04:52:49.267Z,98.50
2018-05-15T04:55:18.299Z,98.90
2018-05-15T04:57:46.587Z,98.90
2018-05-15T05:00:14.884Z,98.10
2018-05-15T05:02:43.191Z,98.40
2018-05-15T05:05:11.445Z,97.60
2018-05-15T05:07:40.473Z,97.00
2018-05-15T05:10:08.736Z,96.80
2018-05-15T05:12:37.047Z,96.70
2018-05-15T05:15:05.301Z,96.70
2018-05-15T05:17:33.560Z,97.90
2018-05-15T05:20:02.613Z,97.70
2018-05-15T05:22:31.701Z,97.70
2018-05-15T05:25:00.754Z,97.50
2018-05-15T05:27:29.785Z,98.20
2018-05-15T05:29:58.089Z,98.10
2018-05-15T05:32:27.121Z,99.40
2018-05-15T05:34:55.398Z,99.30
2018-05-15T05:37:23.679Z,99.40
2018-05-15T05:39:51.948Z,99.90
2018-05-15T05:42:20.198Z,99.90
2018-05-15T05:44:49.282Z,99.90
2018-05-15T05:47:17.584Z,99.90
2018-05-15T05:49:46.621Z,99.00
2018-05-15T05:52:14.870Z,99.00
2018-05-15T05:54:43.122Z,98.80
2018-05-15T05:57:12.143Z,99.80
2018-05-15T05:59:40.582Z,99.80
2018-05-15T06:02:08.883Z,99.90
2018-05-15T06:04:37.967Z,99.30
2018-05-15T06:07:06.987Z,99.90
2018-05-15T06:09:35.257Z,99.90
2018-05-15T06:12:03.514Z,99.90
2018-05-15T06:14:31.771Z,98.90
2018-05-15T06:17:00.785Z,98.30
2018-05-15T06:19:29.030Z,97.90
2018-05-15T06:21:57.275Z,97.10
2018-05-15T06:24:25.575Z,97.40
2018-05-15T06:26:54.666Z,96.40
2018-05-15T06:29:22.936Z,94.90
2018-05-15T06:31:51.203Z,94.40
2018-05-15T06:34:19.496Z,93.20
2018-05-15T06:36:47.758Z,93.40
2018-05-15T06:39:16.021Z,92.60
2018-05-15T06:41:44.277Z,91.30
2018-05-15T06:44:12.569Z,91.80
2018-05-15T06:46:40.827Z,92.40
2018-05-15T06:49:09.108Z,92.40
2018-05-15T06:51:37.517Z,92.40
2018-05-15T06:54:05.816Z,92.40
2018-05-15T06:56:34.068Z,92.30
2018-05-15T06:59:03.275Z,91.00
2018-05-15T07:01:31.533Z,91.60
2018-05-15T07:03:59.777Z,90.50
2018-05-15T07:06:28.057Z,87.70
2018-05-15T07:08:57.139Z,81.80
2018-05-15T07:11:26.174Z,78.50
2018-05-15T07:13:54.439Z,78.40
2018-05-15T07:16:22.712Z,79.10
2018-05-15T07:18:50.999Z,78.00
2018-05-15T07:21:19.270Z,78.20
2018-05-15T07:23:47.667Z,75.70
2018-05-15T07:26:15.916Z,80.70
2018-05-15T07:28:44.181Z,80.60
2018-05-15T07:31:12.449Z,78.70
2018-05-15T07:33:41.438Z,81.00
2018-05-15T07:36:10.459Z,79.70
2018-05-15T07:38:38.736Z,79.70
2018-05-15T07:41:06.992Z,79.40
2018-05-15T07:43:35.251Z,76.20
2018-05-15T07:46:04.502Z,67.40
2018-05-15T07:48:32.753Z,67.30
2018-05-15T07:51:01.014Z,64.40
2018-05-15T07:53:30.032Z,61.80
2018-05-15T07:55:58.283Z,61.80
2018-05-15T07:58:27.662Z,58.80
2018-05-15T08:00:55.922Z,58.80
2018-05-15T08:03:24.262Z,57.90
2018-05-15T08:05:52.513Z,59.00
2018-05-15T08:08:21.545Z,57.90
2018-05-15T08:10:49.832Z,57.80
2018-05-15T08:13:18.029Z,57.40
2018-05-15T08:15:47.094Z,57.00
2018-05-15T08:18:15.888Z,57.00
2018-05-15T08:20:44.139Z,56.50
2018-05-15T08:23:12.392Z,55.90
2018-05-15T08:25:41.430Z,57.10
2018-05-15T08:28:09.675Z,57.30
2018-05-15T08:30:37.953Z,56.60
2018-05-15T08:33:06.198Z,55.80
2018-05-15T08:35:35.228Z,58.20
2018-05-15T08:38:03.536Z,58.10
2018-05-15T08:40:31.781Z,55.10
2018-05-15T08:43:00.035Z,55.60
2018-05-15T08:45:28.384Z,56.10
2018-05-15T08:47:56.562Z,53.90
2018-05-15T08:50:25.576Z,53.20
2018-05-15T08:52:53.829Z,53.20
2018-05-15T08:55:22.099Z,52.50
2018-05-15T08:57:51.853Z,54.10
2018-05-15T09:00:20.122Z,54.00
2018-05-15T09:02:48.387Z,54.00
2018-05-15T09:05:17.429Z,52.10
2018-05-15T09:07:45.684Z,52.00
2018-05-15T09:10:13.947Z,52.50
2018-05-15T09:12:42.211Z,53.10
2018-05-15T09:15:10.554Z,53.10
2018-05-15T09:17:38.817Z,53.20
2018-05-15T09:20:07.097Z,52.60
2018-05-15T09:22:35.428Z,52.80
2018-05-15T09:25:03.668Z,54.70
2018-05-15T09:27:31.953Z,52.30
2018-05-15T09:30:01.005Z,52.70
2018-05-15T09:32:29.245Z,52.50
2018-05-15T09:34:57.555Z,52.80
2018-05-15T09:37:25.824Z,52.30
2018-05-15T09:39:54.529Z,52.40
2018-05-15T09:42:22.848Z,54.90
2018-05-15T09:44:51.113Z,55.10
2018-05-15T09:47:20.144Z,54.50
2018-05-15T09:49:48.386Z,54.40
2018-05-15T09:52:18.425Z,50.10
2018-05-15T09:54:46.731Z,50.20
2018-05-15T09:57:14.996Z,51.10
2018-05-15T09:59:43.436Z,51.00
2018-05-15T10:02:12.539Z,50.00
2018-05-15T10:04:40.802Z,49.90
2018-05-15T10:07:09.844Z,48.80
2018-05-15T10:09:38.100Z,48.70
2018-05-15T10:12:06.414Z,51.00
2018-05-15T10:14:35.643Z,48.10
2018-05-15T10:17:04.689Z,47.10
2018-05-15T10:19:32.962Z,46.90
2018-05-15T10:22:01.846Z,45.90
2018-05-15T10:24:30.218Z,45.70
2018-05-15T10:27:00.077Z,45.40
2018-05-15T10:29:28.328Z,46.30
2018-05-15T10:31:56.737Z,47.40
2018-05-15T10:34:25.758Z,48.90
2018-05-15T10:36:54.006Z,48.70
2018-05-15T10:39:22.265Z,45.30
2018-05-15T10:41:50.528Z,45.10
2018-05-15T10:44:18.764Z,44.90
2018-05-15T10:46:47.046Z,44.90
2018-05-15T10:49:15.339Z,43.20
2018-05-15T10:51:43.595Z,43.40
2018-05-15T10:54:11.915Z,41.60
2018-05-15T10:56:40.204Z,43.40
2018-05-15T10:59:08.465Z,44.00
2018-05-15T11:01:36.756Z,42.70
2018-05-15T11:04:05.450Z,44.80
2018-05-15T11:06:34.548Z,42.10
2018-05-15T11:09:03.579Z,43.00
2018-05-15T11:11:31.845Z,42.60
2018-05-15T11:14:00.132Z,43.70
2018-05-15T11:16:28.389Z,45.00
2018-05-15T11:18:56.670Z,45.90
2018-05-15T11:21:36.826Z,45.60
2018-05-15T11:24:30.909Z,47.70
2018-05-15T11:26:59.125Z,47.70
2018-05-15T11:29:27.397Z,48.70
2018-05-15T11:31:55.690Z,47.00
2018-05-15T11:34:23.978Z,46.10
2018-05-15T11:36:52.787Z,45.60
2018-05-15T11:39:21.808Z,47.80
2018-05-15T11:41:50.173Z,47.70
2018-05-15T11:44:18.445Z,48.70
2018-05-15T11:46:47.477Z,45.20
2018-05-15T11:49:16.257Z,45.20
2018-05-15T11:51:44.767Z,44.30
2018-05-15T11:54:12.925Z,46.50
2018-05-15T11:56:41.198Z,46.90
2018-05-15T11:59:09.470Z,45.20
2018-05-15T12:01:37.750Z,44.00
2018-05-15T12:04:06.051Z,46.40
2018-05-15T12:06:34.312Z,46.60
2018-05-15T12:09:02.728Z,47.40
2018-05-15T12:11:30.965Z,49.00
2018-05-15T12:14:00.190Z,49.50
2018-05-15T12:16:28.537Z,49.70
2018-05-15T12:18:56.784Z,48.60
2018-05-15T12:21:26.901Z,49.50
2018-05-15T12:23:55.185Z,48.70
2018-05-15T12:26:23.442Z,49.20
2018-05-15T12:28:51.708Z,50.30
2018-05-15T12:31:20.728Z,49.90
2018-05-15T12:33:49.008Z,49.80
2018-05-15T12:36:17.279Z,49.60
2018-05-15T12:38:47.507Z,51.20
2018-05-15T12:41:15.829Z,51.20
2018-05-15T12:43:44.091Z,50.20
2018-05-15T12:46:14.845Z,51.20
2018-05-15T12:48:43.118Z,51.20
2018-05-15T12:51:12.220Z,50.50
2018-05-15T12:53:41.251Z,52.10
2018-05-15T12:56:09.511Z,51.90
2018-05-15T12:58:37.851Z,51.00
2018-05-15T13:01:06.106Z,51.90
2018-05-15T13:03:34.546Z,50.60
2018-05-15T13:06:02.860Z,51.30
2018-05-15T13:08:31.153Z,51.70
2018-05-15T13:10:59.421Z,51.70
2018-05-15T13:13:27.692Z,53.40
2018-05-15T13:15:55.986Z,51.40
2018-05-15T13:18:24.279Z,50.30
2018-05-15T13:20:52.534Z,50.40
2018-05-15T13:23:22.315Z,47.60
2018-05-15T13:25:50.591Z,47.60
2018-05-15T13:28:19.620Z,46.10
2018-05-15T13:30:47.889Z,46.10
2018-05-15T13:33:16.161Z,44.70
2018-05-15T13:35:44.430Z,46.30
2018-05-15T13:38:12.714Z,44.50
2018-05-15T13:40:40.977Z,44.40
2018-05-15T13:43:09.232Z,43.80
2018-05-15T13:45:37.545Z,43.20
2018-05-15T13:48:05.827Z,46.00
2018-05-15T13:50:34.919Z,44.10
2018-05-15T13:53:03.921Z,45.10
2018-05-15T13:55:32.974Z,46.70
2018-05-15T13:58:01.220Z,46.80
2018-05-15T14:00:29.507Z,47.50
2018-05-15T14:02:57.775Z,46.50
2018-05-15T14:05:26.099Z,46.90
2018-05-15T14:07:54.435Z,47.80
2018-05-15T14:10:23.444Z,48.80
2018-05-15T14:12:51.729Z,49.40
2018-05-15T14:15:20.018Z,50.80
2018-05-15T14:17:48.285Z,50.90
2018-05-15T14:20:16.576Z,52.00
2018-05-15T14:22:44.844Z,51.80
2018-05-15T14:25:13.162Z,51.10
2018-05-15T14:27:41.544Z,50.60
2018-05-15T14:30:09.911Z,50.30
2018-05-15T14:32:38.263Z,49.40
2018-05-15T14:35:06.538Z,48.70
2018-05-15T14:37:34.797Z,47.90
2018-05-15T14:40:03.058Z,47.80
2018-05-15T14:42:43.718Z,47.50
2018-05-15T14:45:16.852Z,49.30
2018-05-15T14:47:46.155Z,46.80
2018-05-15T14:50:14.458Z,46.80
2018-05-15T14:52:43.491Z,47.50
2018-05-15T14:55:12.070Z,47.00
2018-05-15T14:57:40.341Z,47.10
2018-05-15T15:00:08.588Z,47.00
2018-05-15T15:02:37.608Z,44.60
2018-05-15T15:05:05.884Z,44.50
2018-05-15T15:07:34.156Z,46.60
2018-05-15T15:10:02.476Z,45.20
2018-05-15T15:12:30.745Z,46.40
2018-05-15T15:14:59.025Z,45.50
2018-05-15T15:17:27.411Z,46.20
2018-05-15T15:19:55.685Z,46.00
2018-05-15T15:22:23.963Z,45.80
2018-05-15T15:24:53.019Z,46.50
2018-05-15T15:27:21.331Z,47.80
2018-05-15T15:29:49.584Z,46.00
2018-05-15T15:32:17.939Z,47.30
2018-05-15T15:34:46.779Z,47.10
2018-05-15T15:37:15.068Z,47.10
2018-05-15T15:39:44.596Z,47.50
2018-05-15T15:42:16.516Z,47.30
2018-05-15T15:44:45.710Z,47.60
2018-05-15T15:47:14.032Z,47.50
2018-05-15T15:49:43.074Z,47.60
2018-05-15T15:52:11.365Z,47.60
2018-05-15T15:54:39.628Z,48.70
2018-05-15T15:57:07.884Z,48.40
2018-05-15T15:59:36.137Z,48.50
2018-05-15T16:02:05.157Z,49.00
2018-05-15T16:04:33.491Z,48.90
2018-05-15T16:07:02.501Z,46.50
2018-05-15T16:09:32.168Z,46.50
2018-05-15T16:12:00.427Z,46.40
2018-05-15T16:14:28.712Z,46.80
2018-05-15T16:16:56.955Z,46.00
2018-05-15T16:19:25.233Z,46.30
2018-05-15T16:21:53.530Z,47.60
2018-05-15T16:24:21.857Z,47.60
2018-05-15T16:26:50.867Z,48.60
2018-05-15T16:29:19.145Z,48.60
2018-05-15T16:31:47.409Z,49.60
2018-05-15T16:34:16.457Z,49.70
2018-05-15T16:36:44.714Z,49.70
2018-05-15T16:39:12.972Z,50.80
2018-05-15T16:41:41.242Z,51.50
2018-05-15T16:44:09.526Z,51.60
2018-05-15T16:46:37.807Z,52.30
2018-05-15T16:49:06.072Z,52.50
2018-05-15T16:51:34.334Z,52.10
2018-05-15T16:54:03.401Z,52.00
2018-05-15T16:56:31.656Z,52.00
2018-05-15T16:58:59.913Z,52.00
2018-05-15T17:01:28.162Z,52.50
2018-05-15T17:03:56.443Z,52.70
2018-05-15T17:06:24.886Z,53.30
2018-05-15T17:08:53.214Z,54.00
2018-05-15T17:11:21.478Z,54.20
2018-05-15T17:13:49.795Z,54.00
2018-05-15T17:16:18.040Z,54.00
2018-05-15T17:18:46.309Z,54.40
2018-05-15T17:21:14.584Z,54.80
2018-05-15T17:23:42.845Z,54.90
2018-05-15T17:26:11.882Z,55.70
2018-05-15T17:28:40.146Z,55.60
2018-05-15T17:31:08.699Z,55.50
2018-05-15T17:33:37.036Z,56.20
2018-05-15T17:36:05.404Z,55.80
2018-05-15T17:38:33.742Z,56.00
2018-05-15T17:41:02.767Z,56.50
2018-05-15T17:43:31.019Z,56.40
2018-05-15T17:45:59.388Z,57.00
2018-05-15T17:48:28.443Z,61.80
2018-05-15T17:50:56.756Z,61.80
2018-05-15T17:53:25.015Z,66.30
2018-05-15T17:55:54.050Z,71.00
2018-05-15T17:58:22.313Z,70.90
2018-05-15T18:00:50.565Z,71.60
2018-05-15T18:03:18.862Z,73.20
2018-05-15T18:05:47.874Z,74.30
2018-05-15T18:08:16.192Z,74.30
2018-05-15T18:10:44.448Z,75.20
2018-05-15T18:13:12.732Z,77.80
2018-05-15T18:15:41.018Z,77.00
2018-05-15T18:18:09.399Z,77.70
2018-05-15T18:20:37.752Z,78.20
2018-05-15T18:23:05.999Z,79.10
2018-05-15T18:25:34.257Z,82.70
2018-05-15T18:28:03.294Z,85.00
2018-05-15T18:30:31.590Z,85.00
2018-05-15T18:32:59.861Z,86.00
2018-05-15T18:35:28.111Z,87.40
2018-05-15T18:37:56.371Z,88.50
2018-05-15T18:40:24.780Z,90.00
2018-05-15T18:42:53.176Z,90.70
2018-05-15T18:45:21.535Z,91.60
2018-05-15T18:47:49.823Z,92.60
2018-05-15T18:50:18.154Z,93.40
2018-05-15T18:52:46.428Z,93.90
2018-05-15T18:55:15.536Z,95.40
2018-05-15T18:57:43.802Z,95.40
2018-05-15T19:00:12.092Z,95.50
2018-05-15T19:02:40.354Z,96.00
2018-05-15T19:05:08.617Z,96.10
2018-05-15T19:07:37.645Z,96.80
2018-05-15T19:10:05.921Z,96.70
2018-05-15T19:12:34.195Z,97.00
2018-05-15T19:15:02.486Z,97.60
2018-05-15T19:17:31.821Z,98.30
2018-05-15T19:20:00.099Z,98.30
2018-05-15T19:22:28.362Z,98.30
2018-05-15T19:24:56.649Z,98.60
2018-05-15T19:27:24.919Z,98.80
2018-05-15T19:29:53.178Z,99.30
2018-05-15T19:32:27.125Z,99.60
2018-05-15T19:34:56.816Z,99.90
2018-05-15T19:37:25.908Z,99.90
2018-05-15T19:39:56.701Z,99.90
2018-05-15T19:42:24.953Z,99.90
2018-05-15T19:44:53.253Z,99.90
2018-05-15T19:47:22.233Z,99.90
2018-05-15T19:49:50.518Z,99.90
2018-05-15T19:52:18.766Z,99.90
2018-05-15T19:54:47.823Z,99.90
2018-05-15T19:57:16.064Z,99.90
2018-05-15T19:59:44.343Z,99.90
2018-05-15T20:02:12.593Z,99.90
2018-05-15T20:04:40.865Z,99.90
2018-05-15T20:07:09.901Z,99.90
2018-05-15T20:09:39.084Z,99.90
2018-05-15T20:12:07.396Z,99.90
2018-05-15T20:14:35.661Z,99.90
2018-05-15T20:17:03.911Z,99.90
2018-05-15T20:19:32.167Z,99.90
2018-05-15T20:22:01.203Z,99.90
2018-05-15T20:24:29.500Z,99.90
2018-05-15T20:26:57.744Z,99.90
2018-05-15T20:29:26.099Z,99.90
2018-05-15T20:31:54.373Z,99.90
2018-05-15T20:34:22.629Z,99.90
2018-05-15T20:36:51.627Z,99.90
2018-05-15T20:39:20.645Z,99.90
2018-05-15T20:41:48.922Z,99.90
2018-05-15T20:44:17.251Z,99.90
2018-05-15T20:46:45.511Z,99.90
2018-05-15T20:49:13.787Z,99.90
2018-05-15T20:51:42.041Z,99.90
2018-05-15T20:54:10.311Z,99.90
2018-05-15T20:56:38.598Z,99.90
2018-05-15T20:59:06.859Z,99.90
2018-05-15T21:01:35.128Z,99.90
2018-05-15T21:04:03.396Z,99.90
2018-05-15T21:06:32.426Z,99.90
2018-05-15T21:09:00.680Z,99.90
2018-05-15T21:11:28.953Z,99.90
2018-05-15T21:13:57.217Z,99.90
2018-05-15T21:16:25.498Z,99.90
2018-05-15T21:18:53.771Z,99.90
2018-05-15T21:21:22.782Z,99.90
2018-05-15T21:23:51.050Z,99.90
2018-05-15T21:26:19.342Z,99.90
2018-05-15T21:28:47.607Z,99.90
2018-05-15T21:31:15.859Z,99.90
2018-05-15T21:33:44.899Z,99.90
2018-05-15T21:36:13.139Z,99.90
2018-05-15T21:38:41.387Z,99.90
2018-05-15T21:41:10.430Z,99.90
2018-05-15T21:43:38.695Z,99.90
2018-05-15T21:46:06.944Z,99.90
2018-05-15T21:48:35.964Z,99.90
2018-05-15T21:51:04.217Z,99.90
2018-05-15T21:53:32.481Z,99.90
2018-05-15T21:56:01.509Z,99.90
2018-05-15T21:58:29.774Z,99.90
2018-05-15T22:00:58.057Z,99.90
2018-05-15T22:03:26.325Z,99.90
2018-05-15T22:05:54.570Z,99.90
2018-05-15T22:08:22.840Z,99.90
2018-05-15T22:10:51.126Z,99.90
2018-05-15T22:13:32.992Z,99.90
2018-05-15T22:16:13.210Z,99.90
2018-05-15T22:18:53.915Z,99.90
2018-05-15T22:21:33.904Z,99.90
2018-05-15T22:24:02.634Z,99.90
2018-05-15T22:26:30.888Z,99.90
2018-05-15T22:28:59.722Z,99.90
2018-05-15T22:31:27.982Z,99.90
2018-05-15T22:33:56.246Z,99.90
2018-05-15T22:36:24.527Z,99.90
2018-05-15T22:38:52.850Z,99.90
2018-05-15T22:41:21.101Z,99.90
2018-05-15T22:43:49.391Z,99.90
2018-05-15T22:46:17.664Z,99.90
2018-05-15T22:48:45.923Z,99.90
2018-05-15T22:51:14.256Z,99.90
2018-05-15T22:53:42.549Z,99.90
2018-05-15T22:56:10.802Z,99.90
2018-05-15T22:58:39.064Z,99.90
2018-05-15T23:01:08.163Z,99.90
2018-05-15T23:03:37.194Z,99.90
2018-05-15T23:06:05.446Z,99.90
2018-05-15T23:08:33.709Z,99.90
2018-05-15T23:11:02.729Z,99.90
2018-05-15T23:13:30.990Z,99.90
2018-05-15T23:15:59.245Z,99.90
2018-05-15T23:18:28.307Z,99.90
2018-05-15T23:20:56.558Z,99.90
2018-05-15T23:23:24.813Z,99.90
2018-05-15T23:25:53.160Z,99.90
2018-05-15T23:28:21.431Z,99.90
2018-05-15T23:30:49.685Z,99.90
2018-05-15T23:33:17.950Z,99.90
2018-05-15T23:35:46.215Z,99.90
2018-05-15T23:38:14.463Z,99.90
2018-05-15T23:40:42.722Z,99.90
2018-05-15T23:43:12.260Z,99.90
2018-05-15T23:45:40.522Z,99.90
2018-05-15T23:48:09.572Z,99.90
2018-05-15T23:50:37.816Z,99.90
2018-05-15T23:53:06.073Z,99.90
2018-05-15T23:55:34.350Z,99.90
2018-05-15T23:58:02.615Z,99.90
